Time;durP1;ratioP1;P1;durP2;ratioP2;P2;SDS_P1;SDS_P2;PMS_P1;PMS_P2;Temp;Humidity;BMP_temperature;BMP_pressure;BME280_temperature;BME280_humidity;BME280_pressure;Samples;Min_cycle;Max_cycle;Signal;HPM_P1;HPM_P2
2022/12/18 00:01:16;;;;;;;37.83;16.30;;;-4.60;99.90;;;;;;6215964;23;20231;-75
2022/12/18 00:03:43;;;;;;;35.83;16.67;;;-4.50;99.90;;;;;;6188828;23;20241;-74
2022/12/18 00:06:11;;;;;;;39.90;17.20;;;-4.60;99.90;;;;;;6188741;23;20195;-76
2022/12/18 00:08:38;;;;;;;37.97;16.47;;;-4.60;99.90;;;;;;6188787;23;20693;-77
2022/12/18 00:11:17;;;;;;;37.73;16.10;;;-4.40;99.90;;;;;;6188995;23;20171;-75
2022/12/18 00:13:45;;;;;;;36.30;16.40;;;-4.50;99.90;;;;;;6215337;23;20190;-75
2022/12/18 00:16:20;;;;;;;32.87;14.73;;;-4.70;99.90;;;;;;6188594;23;20181;-75
2022/12/18 00:18:52;;;;;;;32.30;14.73;;;-4.70;99.90;;;;;;6215748;23;20484;-74
2022/12/18 00:21:20;;;;;;;38.67;16.37;;;-4.70;99.90;;;;;;6188645;23;20521;-74
2022/12/18 00:23:49;;;;;;;31.27;14.17;;;-4.70;99.90;;;;;;6215258;23;20160;-74
2022/12/18 00:26:24;;;;;;;35.37;15.23;;;-4.50;99.90;;;;;;6215068;23;20199;-76
2022/12/18 00:28:52;;;;;;;38.77;16.20;;;-4.40;99.90;;;;;;6188556;23;20162;-73
2022/12/18 00:31:24;;;;;;;34.20;13.87;;;-4.50;99.90;;;;;;6189096;23;20171;-75
2022/12/18 00:33:55;;;;;;;36.23;15.33;;;-4.40;99.90;;;;;;6188003;23;20244;-76
2022/12/18 00:36:27;;;;;;;34.30;15.00;;;-4.40;99.90;;;;;;6188160;23;20270;-78
2022/12/18 00:38:56;;;;;;;34.97;14.90;;;-4.40;99.90;;;;;;6214718;23;20167;-76
2022/12/18 00:44:12;;;;;;;37.53;15.57;;;-4.20;99.90;;;;;;6188852;23;20499;-78
2022/12/18 00:46:42;;;;;;;38.83;15.90;;;-4.10;99.90;;;;;;6163718;23;20175;-79
2022/12/18 00:49:13;;;;;;;34.90;15.00;;;-4.10;99.90;;;;;;6164227;23;20167;-77
2022/12/18 00:51:40;;;;;;;38.23;15.73;;;-4.20;99.90;;;;;;6188609;23;20168;-75
2022/12/18 00:54:08;;;;;;;35.70;15.03;;;-4.10;99.90;;;;;;6188463;23;20178;-77
2022/12/18 00:56:42;;;;;;;32.50;14.23;;;-4.20;99.90;;;;;;6188070;23;20222;-75
2022/12/18 00:59:19;;;;;;;35.70;15.30;;;-4.20;99.90;;;;;;6188501;23;20182;-76
2022/12/18 01:01:46;;;;;;;36.30;15.10;;;-4.20;99.90;;;;;;6188583;23;20231;-76
2022/12/18 01:04:14;;;;;;;33.97;15.17;;;-4.20;99.90;;;;;;6188675;23;20197;-77
2022/12/18 01:06:41;;;;;;;33.30;15.27;;;-4.30;99.90;;;;;;6188168;23;20210;-75
2022/12/18 01:09:07;;;;;;;37.23;15.37;;;-4.30;99.90;;;;;;6188634;23;20166;-75
2022/12/18 01:11:34;;;;;;;38.33;15.90;;;-4.20;99.90;;;;;;6188715;23;20517;-77
2022/12/18 01:14:01;;;;;;;36.30;16.00;;;-4.20;99.90;;;;;;6187938;23;20601;-78
2022/12/18 01:16:28;;;;;;;38.50;15.67;;;-4.30;99.90;;;;;;6188045;23;20601;-77
2022/12/18 01:18:56;;;;;;;38.67;15.67;;;-4.30;99.90;;;;;;6215224;23;20171;-77
2022/12/18 01:21:24;;;;;;;36.53;14.80;;;-4.10;99.90;;;;;;6189220;23;20190;-78
2022/12/18 01:23:53;;;;;;;37.97;15.53;;;-4.10;99.90;;;;;;6189083;23;20167;-80
2022/12/18 01:26:20;;;;;;;38.77;15.83;;;-4.10;99.90;;;;;;6215651;23;20575;-79
2022/12/18 01:28:47;;;;;;;36.97;15.20;;;-4.20;99.90;;;;;;6189241;23;20177;-79
2022/12/18 01:31:30;;;;;;;36.80;15.53;;;-4.20;99.90;;;;;;6189165;23;20254;-80
2022/12/18 01:33:59;;;;;;;36.00;15.53;;;-4.10;99.90;;;;;;6215586;23;20167;-76
2022/12/18 01:36:32;;;;;;;37.23;15.43;;;-4.10;99.90;;;;;;6215113;23;20205;-78
2022/12/18 01:39:01;;;;;;;37.73;15.60;;;-4.00;99.90;;;;;;6188632;23;20171;-79
2022/12/18 01:42:01;;;;;;;35.63;16.27;;;-4.10;99.90;;;;;;6215111;23;20176;-76
2022/12/18 01:44:55;;;;;;;39.27;15.00;;;-4.10;99.90;;;;;;6213944;23;20171;-79
2022/12/18 01:47:38;;;;;;;35.17;15.00;;;-4.00;99.90;;;;;;6214452;23;20170;-76
2022/12/18 01:50:20;;;;;;;34.27;13.90;;;-3.90;99.90;;;;;;6214491;23;20254;-77
2022/12/18 01:52:51;;;;;;;37.10;14.77;;;-3.80;99.90;;;;;;6188409;23;20192;-78
2022/12/18 01:55:22;;;;;;;37.23;14.90;;;-4.00;99.90;;;;;;6188265;23;20175;-77
2022/12/18 01:57:52;;;;;;;37.43;15.43;;;-4.00;99.90;;;;;;6188188;23;20238;-78
2022/12/18 02:00:21;;;;;;;35.57;14.57;;;-3.90;99.90;;;;;;6163920;23;20190;-77
2022/12/18 02:02:48;;;;;;;36.33;14.80;;;-3.90;99.90;;;;;;6190652;23;20202;-87
2022/12/18 02:05:26;;;;;;;39.27;15.93;;;-3.90;99.90;;;;;;6190487;23;20270;-81
2022/12/18 02:08:05;;;;;;;36.77;14.13;;;-3.70;99.90;;;;;;6190501;23;20610;-81
2022/12/18 02:10:47;;;;;;;34.03;13.80;;;-3.70;99.90;;;;;;6190823;23;20171;-84
2022/12/18 02:13:43;;;;;;;32.23;14.23;;;-3.60;99.90;;;;;;6191917;23;20174;-84
2022/12/18 02:16:23;;;;;;;32.13;14.30;;;-3.60;99.90;;;;;;6215115;23;20175;-84
2022/12/18 02:18:57;;;;;;;37.07;14.23;;;-3.60;99.90;;;;;;6190411;23;20176;-84
2022/12/18 02:21:34;;;;;;;38.67;14.40;;;-3.80;99.90;;;;;;6190388;23;20192;-84
2022/12/18 02:24:29;;;;;;;33.63;13.57;;;-3.70;99.90;;;;;;6216804;23;20195;-85
2022/12/18 02:27:04;;;;;;;33.73;13.67;;;-3.70;99.90;;;;;;6215380;23;20201;-87
2022/12/18 02:29:37;;;;;;;30.87;12.97;;;-3.70;99.90;;;;;;6190193;23;20176;-87
2022/12/18 02:32:09;;;;;;;36.53;14.90;;;-3.70;99.90;;;;;;6190014;23;20197;-85
2022/12/18 02:34:39;;;;;;;39.37;14.23;;;-3.70;99.90;;;;;;6217155;23;20562;-86
2022/12/18 02:37:11;;;;;;;37.23;13.87;;;-3.60;99.90;;;;;;6190275;23;20167;-86
2022/12/18 02:39:41;;;;;;;33.40;13.03;;;-3.70;99.90;;;;;;6217102;23;20638;-86
2022/12/18 02:42:08;;;;;;;35.30;12.83;;;-3.70;99.90;;;;;;6190645;23;20167;-85
2022/12/18 02:44:44;;;;;;;40.00;14.27;;;-3.70;99.90;;;;;;6189995;23;20596;-85
2022/12/18 02:47:13;;;;;;;37.20;14.43;;;-3.70;99.90;;;;;;6190631;23;20631;-85
2022/12/18 02:49:48;;;;;;;37.10;14.13;;;-3.70;99.90;;;;;;6190298;23;20167;-86
2022/12/18 02:52:46;;;;;;;34.53;14.43;;;-3.70;99.90;;;;;;6216547;23;20523;-86
2022/12/18 02:55:28;;;;;;;36.57;14.33;;;-3.60;99.90;;;;;;6216612;23;20168;-85
2022/12/18 02:58:03;;;;;;;30.97;13.10;;;-3.70;99.90;;;;;;6189581;23;20194;-85
2022/12/18 03:00:35;;;;;;;32.83;13.83;;;-3.70;99.90;;;;;;6190670;23;20171;-84
2022/12/18 03:03:05;;;;;;;38.50;15.10;;;-3.60;99.90;;;;;;6189940;23;20179;-85
2022/12/18 03:05:41;;;;;;;35.17;14.27;;;-3.60;99.90;;;;;;6189941;23;20205;-85
2022/12/18 03:08:31;;;;;;;36.40;14.63;;;-3.80;99.90;;;;;;6190094;23;20185;-84
2022/12/18 03:11:04;;;;;;;36.63;14.60;;;-3.70;99.90;;;;;;6189538;23;20532;-84
2022/12/18 03:13:48;;;;;;;33.57;14.03;;;-3.60;99.90;;;;;;6217385;23;20179;-84
2022/12/18 03:16:22;;;;;;;34.47;13.73;;;-3.50;99.90;;;;;;6216803;23;20167;-84
2022/12/18 03:18:57;;;;;;;36.70;14.30;;;-3.60;99.90;;;;;;6190466;23;20236;-85
2022/12/18 03:21:32;;;;;;;41.70;14.30;;;-3.70;99.90;;;;;;6191166;23;20197;-85
2022/12/18 03:24:00;;;;;;;38.20;14.50;;;-3.80;99.90;;;;;;6216484;23;20481;-85
2022/12/18 03:26:29;;;;;;;39.47;14.40;;;-3.80;99.90;;;;;;6189821;23;20198;-85
2022/12/18 03:29:01;;;;;;;34.93;13.67;;;-3.70;99.90;;;;;;6216781;23;20182;-84
2022/12/18 03:31:30;;;;;;;39.73;14.70;;;-3.80;99.90;;;;;;6189791;23;20241;-84
2022/12/18 03:34:06;;;;;;;39.27;14.93;;;-3.80;99.90;;;;;;6165211;23;20558;-85
2022/12/18 03:36:33;;;;;;;39.80;14.83;;;-3.90;99.90;;;;;;6216857;23;20178;-84
2022/12/18 03:39:00;;;;;;;39.87;15.20;;;-4.00;99.90;;;;;;6189572;23;20249;-84
2022/12/18 03:41:45;;;;;;;36.27;15.13;;;-4.00;99.90;;;;;;6189876;23;20177;-85
2022/12/18 03:44:29;;;;;;;38.90;15.03;;;-4.00;99.90;;;;;;6189803;23;20171;-85
2022/12/18 03:47:18;;;;;;;38.50;14.83;;;-4.20;99.90;;;;;;6190096;23;20191;-85
2022/12/18 03:49:51;;;;;;;36.70;14.77;;;-4.20;99.90;;;;;;6216083;23;20597;-85
2022/12/18 03:52:34;;;;;;;40.00;14.63;;;-4.10;99.90;;;;;;6189886;23;20500;-85
2022/12/18 03:55:03;;;;;;;36.60;14.20;;;-4.00;99.90;;;;;;6189324;23;20178;-84
2022/12/18 03:57:32;;;;;;;34.80;14.43;;;-4.00;99.90;;;;;;6215969;23;20210;-85
2022/12/18 04:00:22;;;;;;;38.53;14.93;;;-4.00;99.90;;;;;;6189569;23;20171;-84
2022/12/18 04:02:52;;;;;;;37.97;14.57;;;-4.10;99.90;;;;;;6216887;23;20580;-85
2022/12/18 04:05:22;;;;;;;34.63;14.13;;;-4.00;99.90;;;;;;6216549;23;20160;-85
2022/12/18 04:07:51;;;;;;;41.93;15.20;;;-3.90;99.90;;;;;;6189951;23;20175;-85
2022/12/18 04:10:18;;;;;;;43.23;14.07;;;-3.90;99.90;;;;;;6189889;23;20235;-85
2022/12/18 04:12:45;;;;;;;38.83;13.90;;;-3.90;99.90;;;;;;6216429;23;20588;-85
2022/12/18 04:15:13;;;;;;;39.40;14.23;;;-3.90;99.90;;;;;;6190451;23;20197;-85
2022/12/18 04:17:48;;;;;;;37.57;14.43;;;-4.00;99.90;;;;;;6189509;23;20253;-85
2022/12/18 04:20:16;;;;;;;37.13;14.37;;;-3.90;99.90;;;;;;6189919;23;20190;-85
2022/12/18 04:22:42;;;;;;;35.00;14.93;;;-4.00;99.90;;;;;;6189201;23;20179;-86
2022/12/18 04:25:12;;;;;;;37.67;14.50;;;-4.20;99.90;;;;;;6189549;23;20216;-85
2022/12/18 04:27:39;;;;;;;34.57;13.87;;;-4.30;99.90;;;;;;6189742;23;20217;-85
2022/12/18 04:30:06;;;;;;;34.73;13.90;;;-4.10;99.90;;;;;;6216138;23;20187;-85
2022/12/18 04:32:34;;;;;;;36.17;14.10;;;-4.20;99.90;;;;;;6189538;23;20612;-85
2022/12/18 04:35:01;;;;;;;41.10;15.50;;;-4.20;99.90;;;;;;6216220;23;20172;-85
2022/12/18 04:37:27;;;;;;;37.57;14.33;;;-4.40;99.90;;;;;;6188909;23;20262;-85
2022/12/18 04:39:54;;;;;;;35.67;13.67;;;-4.40;99.90;;;;;;6189759;23;20175;-85
2022/12/18 04:42:21;;;;;;;34.83;14.40;;;-4.30;99.90;;;;;;6216226;23;20665;-85
2022/12/18 04:44:48;;;;;;;33.47;13.77;;;-4.40;99.90;;;;;;6189950;23;20175;-86
2022/12/18 04:47:15;;;;;;;34.43;13.60;;;-4.50;99.90;;;;;;6165133;23;20196;-85
2022/12/18 04:49:42;;;;;;;34.77;13.83;;;-4.50;99.90;;;;;;6216050;23;20174;-84
2022/12/18 04:52:08;;;;;;;36.40;14.20;;;-4.40;99.90;;;;;;6188916;23;20169;-84
2022/12/18 04:54:35;;;;;;;36.73;13.57;;;-4.50;99.90;;;;;;6215660;23;20174;-85
2022/12/18 04:57:02;;;;;;;33.43;13.30;;;-4.50;99.90;;;;;;6188717;23;20675;-84
2022/12/18 04:59:29;;;;;;;37.33;13.40;;;-4.60;99.90;;;;;;6189069;23;20160;-85
2022/12/18 05:01:56;;;;;;;31.40;13.07;;;-4.60;99.90;;;;;;6215513;23;20581;-84
2022/12/18 05:04:23;;;;;;;33.67;13.20;;;-4.70;99.90;;;;;;6215733;23;20167;-84
2022/12/18 05:06:50;;;;;;;36.37;13.83;;;-4.70;99.90;;;;;;6164684;23;20516;-85
2022/12/18 05:09:16;;;;;;;33.67;13.33;;;-4.60;99.90;;;;;;6215715;23;20173;-85
2022/12/18 05:11:46;;;;;;;32.13;13.17;;;-4.60;99.90;;;;;;6189152;23;20479;-85
2022/12/18 05:14:13;;;;;;;37.80;13.97;;;-4.80;99.90;;;;;;6189999;23;20175;-85
2022/12/18 05:16:40;;;;;;;39.23;14.10;;;-4.80;99.90;;;;;;6215538;23;20254;-84
2022/12/18 05:19:07;;;;;;;37.50;13.30;;;-4.80;99.90;;;;;;6189482;23;20167;-84
2022/12/18 05:21:33;;;;;;;30.70;12.73;;;-4.80;99.90;;;;;;6188495;23;20217;-84
2022/12/18 05:24:00;;;;;;;40.43;14.17;;;-4.70;99.90;;;;;;6188725;23;20174;-84
2022/12/18 05:26:27;;;;;;;35.63;13.80;;;-4.80;99.90;;;;;;6214969;23;20186;-83
2022/12/18 05:28:55;;;;;;;32.60;13.43;;;-4.90;99.90;;;;;;6188766;23;20167;-84
2022/12/18 05:31:22;;;;;;;40.33;14.03;;;-4.80;99.90;;;;;;6189315;23;20172;-84
2022/12/18 05:33:49;;;;;;;35.27;13.30;;;-4.80;99.90;;;;;;6188689;23;20177;-84
2022/12/18 05:36:16;;;;;;;36.63;14.20;;;-4.90;99.90;;;;;;6189890;23;20171;-85
2022/12/18 05:38:43;;;;;;;41.20;14.10;;;-4.90;99.90;;;;;;6218533;23;20171;-84
2022/12/18 05:41:10;;;;;;;42.00;14.33;;;-5.00;99.90;;;;;;6191184;23;20165;-84
2022/12/18 05:43:38;;;;;;;35.93;14.33;;;-5.00;99.90;;;;;;6191091;23;20472;-84
2022/12/18 05:46:08;;;;;;;38.20;13.77;;;-4.90;99.90;;;;;;6190308;23;20191;-84
2022/12/18 05:48:35;;;;;;;37.23;14.27;;;-4.80;99.90;;;;;;6191128;23;20198;-84
2022/12/18 05:51:08;;;;;;;40.60;15.33;;;-4.80;99.90;;;;;;6190390;23;20175;-85
2022/12/18 05:53:36;;;;;;;37.83;14.20;;;-4.70;99.90;;;;;;6190772;23;20608;-84
2022/12/18 05:56:06;;;;;;;39.00;14.70;;;-4.70;99.90;;;;;;6190180;23;20225;-83
2022/12/18 05:58:33;;;;;;;43.37;16.13;;;-4.60;99.90;;;;;;6191430;23;20202;-85
2022/12/18 06:01:18;;;;;;;49.20;16.30;;;-4.50;99.90;;;;;;6165926;23;20167;-85
2022/12/18 06:03:46;;;;;;;50.80;16.03;;;-4.60;99.90;;;;;;6216404;23;20167;-85
2022/12/18 06:06:18;;;;;;;51.50;16.40;;;-4.50;99.90;;;;;;6166175;23;20249;-84
2022/12/18 06:08:47;;;;;;;48.97;16.30;;;-4.70;99.90;;;;;;6217448;23;20179;-84
2022/12/18 06:11:18;;;;;;;46.07;17.20;;;-4.60;99.90;;;;;;6217064;23;20154;-84
2022/12/18 06:13:46;;;;;;;45.13;15.57;;;-4.70;99.90;;;;;;6217088;23;20185;-84
2022/12/18 06:16:13;;;;;;;48.10;16.47;;;-4.70;99.90;;;;;;6191233;23;20171;-83
2022/12/18 06:18:40;;;;;;;49.27;16.30;;;-4.70;99.90;;;;;;6191267;23;20182;-84
2022/12/18 06:21:07;;;;;;;45.00;15.80;;;-4.70;99.90;;;;;;6190529;23;20186;-84
2022/12/18 06:23:34;;;;;;;46.73;16.03;;;-4.80;99.90;;;;;;6190484;23;20224;-84
2022/12/18 06:26:11;;;;;;;45.70;16.80;;;-4.70;99.90;;;;;;6190892;23;20229;-84
2022/12/18 06:28:38;;;;;;;45.40;15.43;;;-4.70;99.90;;;;;;6191465;23;20596;-84
2022/12/18 06:31:05;;;;;;;44.33;15.53;;;-4.70;99.90;;;;;;6190893;23;20235;-83
2022/12/18 06:33:33;;;;;;;48.57;16.57;;;-4.70;99.90;;;;;;6191553;23;20198;-84
2022/12/18 06:36:01;;;;;;;46.67;16.97;;;-4.60;99.90;;;;;;6190915;23;20167;-84
2022/12/18 06:38:28;;;;;;;53.00;16.90;;;-4.60;99.90;;;;;;6190700;23;20174;-83
2022/12/18 06:40:55;;;;;;;49.37;16.17;;;-4.70;99.90;;;;;;6217793;23;20186;-83
2022/12/18 06:43:22;;;;;;;51.47;16.67;;;-4.60;99.90;;;;;;6190455;23;20171;-83
2022/12/18 06:45:52;;;;;;;44.57;17.10;;;-4.50;99.90;;;;;;6216871;23;20665;-86
2022/12/18 06:48:20;;;;;;;50.80;16.70;;;-4.70;99.90;;;;;;6217906;23;20561;-85
2022/12/18 06:50:47;;;;;;;44.63;15.77;;;-4.60;99.90;;;;;;6165890;23;20159;-84
2022/12/18 06:53:14;;;;;;;40.53;15.33;;;-4.70;99.90;;;;;;6191091;23;20167;-85
2022/12/18 06:55:41;;;;;;;46.57;16.07;;;-4.70;99.90;;;;;;6191547;23;20174;-85
2022/12/18 06:58:08;;;;;;;49.60;16.17;;;-4.80;99.90;;;;;;6190246;23;20195;-85
2022/12/18 07:00:37;;;;;;;43.87;16.13;;;-4.80;99.90;;;;;;6217202;23;20485;-83
2022/12/18 07:03:04;;;;;;;49.10;16.50;;;-4.90;99.90;;;;;;6190479;23;20163;-84
2022/12/18 07:05:30;;;;;;;47.30;15.43;;;-5.00;99.90;;;;;;6216817;23;20194;-87
2022/12/18 07:07:58;;;;;;;43.07;15.43;;;-5.00;99.90;;;;;;6189809;23;20654;-82
2022/12/18 07:10:25;;;;;;;43.70;15.87;;;-4.80;99.90;;;;;;6165288;23;20171;-83
2022/12/18 07:12:52;;;;;;;46.03;16.17;;;-4.70;99.90;;;;;;6190850;23;20163;-84
2022/12/18 07:15:19;;;;;;;43.53;16.90;;;-4.60;99.90;;;;;;6217705;23;20171;-84
2022/12/18 07:17:46;;;;;;;44.70;15.57;;;-4.50;99.90;;;;;;6216977;23;20670;-83
2022/12/18 07:20:12;;;;;;;43.73;15.57;;;-4.40;99.90;;;;;;6189935;23;20500;-84
2022/12/18 07:22:41;;;;;;;42.87;15.60;;;-4.50;99.90;;;;;;6190183;23;20216;-84
2022/12/18 07:25:08;;;;;;;44.30;15.70;;;-4.40;99.90;;;;;;6216379;23;20167;-86
2022/12/18 07:27:35;;;;;;;46.03;16.13;;;-4.30;99.90;;;;;;6216411;23;20191;-82
2022/12/18 07:30:02;;;;;;;50.73;16.00;;;-4.20;99.90;;;;;;6190042;23;20171;-83
2022/12/18 07:32:30;;;;;;;44.07;15.40;;;-4.40;99.90;;;;;;6217118;23;20171;-85
2022/12/18 07:34:58;;;;;;;47.57;16.10;;;-4.20;99.90;;;;;;6190491;23;20167;-84
2022/12/18 07:37:25;;;;;;;44.70;16.03;;;-4.10;99.90;;;;;;6216075;23;20170;-84
2022/12/18 07:39:53;;;;;;;44.83;16.17;;;-4.10;99.90;;;;;;6190520;23;20246;-84
2022/12/18 07:42:32;;;;;;;42.63;15.63;;;-4.10;99.90;;;;;;6217061;23;20198;-84
2022/12/18 07:45:03;;;;;;;45.60;15.53;;;-4.30;99.90;;;;;;6190138;23;20162;-85
2022/12/18 07:47:33;;;;;;;43.23;16.10;;;-4.20;99.90;;;;;;6189705;23;20190;-84
2022/12/18 07:50:00;;;;;;;44.13;15.90;;;-4.40;99.90;;;;;;6190110;23;20167;-84
2022/12/18 07:52:26;;;;;;;40.00;14.63;;;-4.60;99.90;;;;;;6190078;23;20611;-84
2022/12/18 07:54:53;;;;;;;46.53;16.33;;;-4.50;99.90;;;;;;6190200;23;20167;-84
2022/12/18 07:57:20;;;;;;;44.67;16.03;;;-4.30;99.90;;;;;;6215669;23;20532;-84
2022/12/18 08:00:08;;;;;;;47.17;16.73;;;-4.10;99.90;;;;;;6189625;23;20198;-83
2022/12/18 08:02:35;;;;;;;49.97;17.00;;;-3.90;99.90;;;;;;6189728;23;20261;-83
2022/12/18 08:05:02;;;;;;;48.63;17.13;;;-3.80;99.90;;;;;;6189769;23;20167;-85
2022/12/18 08:07:29;;;;;;;51.03;17.13;;;-3.80;99.90;;;;;;6216676;23;20241;-84
2022/12/18 08:09:57;;;;;;;45.03;16.57;;;-4.00;99.90;;;;;;6189995;23;20171;-85
2022/12/18 08:12:24;;;;;;;44.70;16.27;;;-4.10;99.90;;;;;;6190501;23;20178;-84
2022/12/18 08:14:51;;;;;;;51.50;17.27;;;-3.90;99.90;;;;;;6216657;23;20198;-84
2022/12/18 08:17:20;;;;;;;50.17;16.97;;;-3.80;99.90;;;;;;6189200;23;20602;-84
2022/12/18 08:19:47;;;;;;;50.47;16.60;;;-3.70;99.90;;;;;;6166002;23;20178;-84
2022/12/18 08:22:14;;;;;;;43.73;15.80;;;-3.70;99.90;;;;;;6189473;23;20195;-85
2022/12/18 08:24:41;;;;;;;46.03;17.53;;;-3.80;99.90;;;;;;6190016;23;20199;-86
2022/12/18 08:27:08;;;;;;;42.57;16.33;;;-3.70;99.90;;;;;;6189546;23;20199;-85
2022/12/18 08:29:55;;;;;;;46.43;16.77;;;-3.70;99.90;;;;;;6189788;23;20194;-85
2022/12/18 08:32:22;;;;;;;43.30;16.27;;;-3.60;99.90;;;;;;6188368;23;20186;-84
2022/12/18 08:34:49;;;;;;;44.63;15.37;;;-3.40;99.90;;;;;;6215763;23;20163;-85
2022/12/18 08:37:16;;;;;;;44.63;17.30;;;-3.40;99.90;;;;;;6216671;23;20172;-85
2022/12/18 08:39:43;;;;;;;43.93;16.27;;;-3.40;99.90;;;;;;6189866;23;20172;-84
2022/12/18 08:44:57;;;;;;;42.93;16.23;;;-3.50;99.90;;;;;;6189640;23;20206;-84
2022/12/18 08:47:25;;;;;;;43.73;15.40;;;-3.60;99.90;;;;;;6215763;23;20190;-85
2022/12/18 08:49:52;;;;;;;43.27;15.73;;;-3.60;99.90;;;;;;6189351;23;20597;-84
2022/12/18 08:52:19;;;;;;;46.77;16.17;;;-3.60;99.90;;;;;;6189294;23;20182;-85
2022/12/18 08:54:46;;;;;;;44.97;16.87;;;-3.70;99.90;;;;;;6216116;23;20226;-85
2022/12/18 08:57:13;;;;;;;42.87;16.17;;;-3.90;99.90;;;;;;6183953;23;20203;-85
2022/12/18 08:59:40;;;;;;;43.73;16.23;;;-3.90;99.90;;;;;;6186254;23;20168;-85
2022/12/18 09:02:10;;;;;;;43.50;16.37;;;-3.80;99.90;;;;;;6185401;23;20168;-85
2022/12/18 09:04:37;;;;;;;42.03;16.40;;;-3.70;99.90;;;;;;6184457;23;20229;-85
2022/12/18 09:07:04;;;;;;;44.80;17.50;;;-3.50;99.90;;;;;;6185202;23;20191;-84
2022/12/18 09:09:31;;;;;;;46.57;17.43;;;-3.40;99.90;;;;;;6185053;23;20167;-84
2022/12/18 09:11:58;;;;;;;45.73;17.60;;;-3.50;99.90;;;;;;6186660;23;20180;-85
2022/12/18 09:14:24;;;;;;;47.00;16.60;;;-3.40;99.90;;;;;;6188546;23;20168;-84
2022/12/18 09:16:51;;;;;;;44.60;17.13;;;-3.40;99.90;;;;;;6185939;23;20177;-84
2022/12/18 09:19:18;;;;;;;44.40;17.23;;;-3.40;99.90;;;;;;6186511;23;20169;-83
2022/12/18 09:21:45;;;;;;;50.03;18.53;;;-3.40;99.90;;;;;;6186372;23;20217;-82
2022/12/18 09:24:14;;;;;;;48.10;18.43;;;-3.30;99.90;;;;;;6185086;23;20176;-83
2022/12/18 09:26:41;;;;;;;46.60;17.50;;;-3.40;99.90;;;;;;6183974;23;20180;-80
2022/12/18 09:29:14;;;;;;;48.90;16.97;;;-3.50;99.90;;;;;;6186967;23;20247;-80
2022/12/18 09:31:41;;;;;;;45.70;17.60;;;-3.40;99.90;;;;;;6186236;23;20171;-86
2022/12/18 09:34:09;;;;;;;45.50;17.97;;;-3.30;99.90;;;;;;6185328;23;20176;-78
2022/12/18 09:36:36;;;;;;;46.03;16.90;;;-3.20;99.90;;;;;;6161169;23;20219;-84
2022/12/18 09:39:03;;;;;;;52.00;18.30;;;-3.20;99.90;;;;;;6187183;23;20471;-83
2022/12/18 09:41:49;;;;;;;49.43;18.40;;;-3.20;99.90;;;;;;6185114;23;20222;-80
2022/12/18 09:44:32;;;;;;;47.63;17.40;;;-3.20;99.90;;;;;;6185771;23;20595;-82
2022/12/18 09:47:14;;;;;;;44.00;18.13;;;-3.10;99.90;;;;;;6186479;23;20603;-83
2022/12/18 09:49:51;;;;;;;43.77;17.83;;;-3.00;99.90;;;;;;6186308;23;20160;-87
2022/12/18 09:52:33;;;;;;;50.27;18.23;;;-3.00;99.90;;;;;;6185212;23;20180;-80
2022/12/18 09:55:07;;;;;;;48.33;19.03;;;-3.10;99.90;;;;;;6187317;23;20177;-84
2022/12/18 09:57:41;;;;;;;50.00;19.73;;;-3.00;99.90;;;;;;6181140;23;20275;-81
2022/12/18 10:00:18;;;;;;;48.87;19.20;;;-3.00;99.90;;;;;;6158226;23;20273;-85
2022/12/18 10:02:45;;;;;;;46.13;19.33;;;-3.10;99.90;;;;;;6157014;23;20181;-85
2022/12/18 10:05:20;;;;;;;54.53;19.70;;;-3.00;99.90;;;;;;6181039;23;20176;-83
2022/12/18 10:08:05;;;;;;;49.83;20.47;;;-2.90;99.90;;;;;;6156529;23;20630;-86
2022/12/18 10:10:52;;;;;;;50.13;19.17;;;-2.80;99.90;;;;;;6156159;23;20172;-80
2022/12/18 10:13:26;;;;;;;54.63;21.13;;;-2.80;99.90;;;;;;6181105;23;20175;-82
2022/12/18 10:16:12;;;;;;;57.03;20.93;;;-2.90;99.90;;;;;;6158846;23;20164;-86
2022/12/18 10:18:58;;;;;;;51.40;20.13;;;-2.90;99.90;;;;;;6178026;23;20228;-84
2022/12/18 10:21:51;;;;;;;54.53;20.80;;;-2.80;99.90;;;;;;6157068;23;20192;-84
2022/12/18 10:24:42;;;;;;;57.07;21.43;;;-3.00;99.90;;;;;;6156211;23;20182;-87
2022/12/18 10:27:22;;;;;;;56.63;21.00;;;-2.90;99.90;;;;;;6158524;23;20184;-84
2022/12/18 10:29:49;;;;;;;54.13;20.57;;;-2.90;99.90;;;;;;6156502;23;20172;-86
2022/12/18 10:32:19;;;;;;;58.57;22.33;;;-2.90;99.90;;;;;;6156569;23;20192;-85
2022/12/18 10:34:48;;;;;;;60.07;22.03;;;-2.80;99.90;;;;;;6156732;23;20324;-83
2022/12/18 10:37:22;;;;;;;61.87;23.23;;;-2.80;99.90;;;;;;6154186;23;20176;-73
2022/12/18 10:40:14;;;;;;;63.10;22.93;;;-3.00;99.90;;;;;;6153351;23;20547;-77
2022/12/18 10:43:04;;;;;;;61.27;21.30;;;-3.00;99.90;;;;;;6155042;23;20177;-74
2022/12/18 10:45:31;;;;;;;64.00;23.03;;;-2.90;99.90;;;;;;6155134;23;20161;-77
2022/12/18 10:47:58;;;;;;;59.10;22.17;;;-2.90;99.90;;;;;;6155387;23;20196;-79
2022/12/18 10:50:31;;;;;;;63.10;22.53;;;-2.90;99.90;;;;;;6157045;23;20178;-80
2022/12/18 10:53:22;;;;;;;65.00;22.13;;;-2.90;99.90;;;;;;6155090;23;20173;-83
2022/12/18 10:55:50;;;;;;;62.40;21.93;;;-2.80;99.90;;;;;;6155061;23;20169;-80
2022/12/18 10:58:33;;;;;;;60.70;21.83;;;-2.80;99.90;;;;;;6182719;23;20270;-82
2022/12/18 11:01:19;;;;;;;60.87;22.47;;;-2.60;99.90;;;;;;6185084;23;20167;-75
2022/12/18 11:04:01;;;;;;;58.07;21.73;;;-2.50;99.90;;;;;;6160080;23;20179;-74
2022/12/18 11:06:32;;;;;;;60.00;22.60;;;-2.40;99.90;;;;;;6184482;23;20167;-73
2022/12/18 11:09:08;;;;;;;62.20;22.17;;;-2.40;99.90;;;;;;6184543;23;20200;-74
2022/12/18 11:11:47;;;;;;;56.03;21.93;;;-2.30;99.90;;;;;;6185990;23;20456;-76
2022/12/18 11:14:23;;;;;;;52.27;20.27;;;-2.20;99.90;;;;;;6184840;23;20172;-71
2022/12/18 11:16:51;;;;;;;58.17;21.17;;;-2.30;99.90;;;;;;6186495;23;20467;-76
2022/12/18 11:19:40;;;;;;;57.83;21.20;;;-2.40;99.90;;;;;;6184791;23;20181;-73
2022/12/18 11:22:27;;;;;;;58.17;20.87;;;-2.30;99.90;;;;;;6184518;23;20198;-74
2022/12/18 11:25:03;;;;;;;56.17;20.60;;;-2.20;99.90;;;;;;6184873;23;20178;-75
2022/12/18 11:27:56;;;;;;;56.50;20.57;;;-2.20;99.90;;;;;;6184719;23;20196;-74
2022/12/18 11:30:24;;;;;;;54.07;19.87;;;-2.50;99.90;;;;;;6184944;23;20175;-78
2022/12/18 11:33:11;;;;;;;57.13;20.97;;;-2.40;99.90;;;;;;6184348;23;20467;-82
2022/12/18 11:35:55;;;;;;;49.97;20.47;;;-2.30;99.90;;;;;;6184616;23;20179;-77
2022/12/18 11:38:36;;;;;;;54.17;20.60;;;-2.10;99.90;;;;;;6184764;23;20179;-79
2022/12/18 11:41:09;;;;;;;55.87;20.50;;;-2.00;99.90;;;;;;6184587;23;20173;-72
2022/12/18 11:44:00;;;;;;;55.13;21.13;;;-1.90;99.90;;;;;;6182248;23;20179;-76
2022/12/18 11:46:38;;;;;;;54.97;20.27;;;-2.00;99.90;;;;;;6184532;23;20175;-77
2022/12/18 11:49:19;;;;;;;57.27;20.87;;;-1.90;99.90;;;;;;6184287;23;20652;-80
2022/12/18 11:52:11;;;;;;;53.87;20.47;;;-1.90;99.90;;;;;;6185245;23;20173;-80
2022/12/18 11:54:38;;;;;;;57.40;20.90;;;-1.90;99.90;;;;;;6185594;23;20173;-82
2022/12/18 11:57:26;;;;;;;54.43;21.03;;;-1.80;99.90;;;;;;6183898;23;20720;-82
2022/12/18 12:00:15;;;;;;;55.30;20.13;;;-1.80;99.90;;;;;;6184274;23;20176;-81
2022/12/18 12:03:09;;;;;;;52.57;20.10;;;-1.80;99.90;;;;;;6184426;23;20591;-73
2022/12/18 12:05:36;;;;;;;57.00;20.10;;;-1.70;99.90;;;;;;6183634;23;20187;-76
2022/12/18 12:08:29;;;;;;;51.80;18.67;;;-1.60;99.90;;;;;;6184091;23;20199;-74
2022/12/18 12:11:37;;;;;;;53.10;19.07;;;-1.80;99.90;;;;;;6185629;23;20634;-75
2022/12/18 12:14:23;;;;;;;53.50;19.10;;;-1.80;99.90;;;;;;6184466;23;20236;-74
2022/12/18 12:16:59;;;;;;;49.77;17.77;;;-1.70;99.90;;;;;;6184044;23;20496;-80
2022/12/18 12:19:35;;;;;;;49.90;19.17;;;-1.70;99.90;;;;;;6184240;23;20179;-76
2022/12/18 12:22:20;;;;;;;47.30;18.23;;;-1.80;99.90;;;;;;6184013;23;20195;-76
2022/12/18 12:24:52;;;;;;;53.40;20.07;;;-1.80;99.90;;;;;;6183718;23;20171;-80
2022/12/18 12:27:35;;;;;;;52.87;18.87;;;-1.90;99.90;;;;;;6183970;23;20183;-77
2022/12/18 12:30:09;;;;;;;51.27;18.90;;;-1.80;99.90;;;;;;6184293;23;20502;-82
2022/12/18 12:32:49;;;;;;;45.13;18.43;;;-1.80;99.90;;;;;;6186885;23;20463;-82
2022/12/18 12:35:33;;;;;;;52.27;18.83;;;-1.80;99.90;;;;;;6186174;23;20214;-89
2022/12/18 12:38:50;;;;;;;51.37;18.60;;;-1.70;99.90;;;;;;6184590;23;20467;-87
2022/12/18 12:44:38;;;;;;;52.30;18.87;;;-1.80;99.90;;;;;;6043444;23;20185;-88
2022/12/18 12:47:33;;;;;;;53.37;19.23;;;-1.90;99.90;;;;;;6041670;23;20180;-85
2022/12/18 12:50:04;;;;;;;49.77;18.37;;;-1.90;99.90;;;;;;6040786;23;20178;-73
2022/12/18 12:52:39;;;;;;;54.07;19.60;;;-2.00;99.90;;;;;;6041446;23;20162;-74
2022/12/18 12:55:15;;;;;;;51.30;18.20;;;-2.00;99.90;;;;;;6018058;23;20175;-81
2022/12/18 12:57:54;;;;;;;50.73;18.80;;;-2.20;99.90;;;;;;6041821;23;20214;-78
2022/12/18 13:00:24;;;;;;;49.97;18.97;;;-2.20;99.90;;;;;;6042058;23;20269;-79
2022/12/18 13:03:10;;;;;;;52.53;18.90;;;-2.10;99.90;;;;;;6042002;23;20184;-83
2022/12/18 13:05:50;;;;;;;50.63;18.30;;;-2.10;99.90;;;;;;6041983;23;20216;-74